sensor_id;sensor_type;location;lat;lon;timestamp;temperature;humidity
15777;DHT22;7989;51.198;6.676;2023-11-21T00:01:20;10.10;99.90
15777;DHT22;7989;51.198;6.676;2023-11-21T00:03:47;10.10;99.90
15777;DHT22;7989;51.198;6.676;2023-11-21T00:06:14;10.10;99.90
15777;DHT22;7989;51.198;6.676;2023-11-21T00:08:40;10.20;99.90
15777;DHT22;7989;51.198;6.676;2023-11-21T00:11:07;10.20;99.90
15777;DHT22;7989;51.198;6.676;2023-11-21T00:13:34;10.20;99.90
15777;DHT22;7989;51.198;6.676;2023-11-21T00:16:01;10.20;99.90
15777;DHT22;7989;51.198;6.676;2023-11-21T00:18:29;10.20;99.90
15777;DHT22;7989;51.198;6.676;2023-11-21T00:20:56;10.10;99.90
15777;DHT22;7989;51.198;6.676;2023-11-21T00:23:24;10.20;99.90
15777;DHT22;7989;51.198;6.676;2023-11-21T00:25:51;10.20;99.90
15777;DHT22;7989;51.198;6.676;2023-11-21T00:28:18;10.30;99.90
15777;DHT22;7989;51.198;6.676;2023-11-21T00:30:45;10.20;99.90
15777;DHT22;7989;51.198;6.676;2023-11-21T00:33:12;10.10;99.90
15777;DHT22;7989;51.198;6.676;2023-11-21T00:35:40;10.20;99.90
15777;DHT22;7989;51.198;6.676;2023-11-21T00:38:07;10.20;99.90
15777;DHT22;7989;51.198;6.676;2023-11-21T00:40:35;10.20;99.90
15777;DHT22;7989;51.198;6.676;2023-11-21T00:43:01;10.20;99.90
15777;DHT22;7989;51.198;6.676;2023-11-21T00:45:28;10.20;99.90
15777;DHT22;7989;51.198;6.676;2023-11-21T00:47:55;10.10;99.90
15777;DHT22;7989;51.198;6.676;2023-11-21T00:50:23;9.70;99.90
15777;DHT22;7989;51.198;6.676;2023-11-21T00:52:53;9.60;99.90
15777;DHT22;7989;51.198;6.676;2023-11-21T00:55:19;9.50;99.90
15777;DHT22;7989;51.198;6.676;2023-11-21T00:57:46;9.60;99.90
15777;DHT22;7989;51.198;6.676;2023-11-21T01:00:14;9.60;99.90
15777;DHT22;7989;51.198;6.676;2023-11-21T01:02:42;9.60;99.90
15777;DHT22;7989;51.198;6.676;2023-11-21T01:05:10;9.70;99.90
15777;DHT22;7989;51.198;6.676;2023-11-21T01:07:37;9.70;99.90
15777;DHT22;7989;51.198;6.676;2023-11-21T01:10:05;9.70;99.90
15777;DHT22;7989;51.198;6.676;2023-11-21T01:12:34;9.70;99.90
15777;DHT22;7989;51.198;6.676;2023-11-21T01:15:02;9.70;99.90
15777;DHT22;7989;51.198;6.676;2023-11-21T01:17:29;9.60;99.90
15777;DHT22;7989;51.198;6.676;2023-11-21T01:19:56;9.60;99.90
15777;DHT22;7989;51.198;6.676;2023-11-21T01:22:23;9.60;99.90
15777;DHT22;7989;51.198;6.676;2023-11-21T01:24:51;9.60;99.90
15777;DHT22;7989;51.198;6.676;2023-11-21T01:27:20;9.60;99.90
15777;DHT22;7989;51.198;6.676;2023-11-21T01:29:46;9.60;99.90
15777;DHT22;7989;51.198;6.676;2023-11-21T01:32:13;9.70;99.90
15777;DHT22;7989;51.198;6.676;2023-11-21T01:34:40;9.80;99.90
15777;DHT22;7989;51.198;6.676;2023-11-21T01:37:07;9.80;99.90
15777;DHT22;7989;51.198;6.676;2023-11-21T01:39:34;9.70;99.90
15777;DHT22;7989;51.198;6.676;2023-11-21T01:42:05;9.70;99.90
15777;DHT22;7989;51.198;6.676;2023-11-21T01:44:34;9.70;99.90
15777;DHT22;7989;51.198;6.676;2023-11-21T01:47:01;9.70;99.90
15777;DHT22;7989;51.198;6.676;2023-11-21T01:49:30;9.80;99.90
15777;DHT22;7989;51.198;6.676;2023-11-21T01:51:58;9.80;99.90
15777;DHT22;7989;51.198;6.676;2023-11-21T01:54:25;9.80;99.90
15777;DHT22;7989;51.198;6.676;2023-11-21T01:56:52;9.80;99.90
15777;DHT22;7989;51.198;6.676;2023-11-21T01:59:20;9.80;99.90
15777;DHT22;7989;51.198;6.676;2023-11-21T02:01:49;9.80;99.90
15777;DHT22;7989;51.198;6.676;2023-11-21T02:04:17;9.90;99.90
15777;DHT22;7989;51.198;6.676;2023-11-21T02:06:44;9.90;99.90
15777;DHT22;7989;51.198;6.676;2023-11-21T02:09:11;9.90;99.90
15777;DHT22;7989;51.198;6.676;2023-11-21T02:11:40;10.00;99.90
15777;DHT22;7989;51.198;6.676;2023-11-21T02:14:07;9.90;99.90
15777;DHT22;7989;51.198;6.676;2023-11-21T02:16:35;10.00;99.90
15777;DHT22;7989;51.198;6.676;2023-11-21T02:19:05;9.80;99.90
15777;DHT22;7989;51.198;6.676;2023-11-21T02:21:34;9.80;99.90
15777;DHT22;7989;51.198;6.676;2023-11-21T02:24:03;9.80;99.90
15777;DHT22;7989;51.198;6.676;2023-11-21T02:26:31;9.90;99.90
15777;DHT22;7989;51.198;6.676;2023-11-21T02:28:57;9.90;99.90
15777;DHT22;7989;51.198;6.676;2023-11-21T02:31:24;9.90;99.90
15777;DHT22;7989;51.198;6.676;2023-11-21T02:33:52;9.80;99.90
15777;DHT22;7989;51.198;6.676;2023-11-21T02:36:19;9.80;99.90
15777;DHT22;7989;51.198;6.676;2023-11-21T02:38:47;9.90;99.90
15777;DHT22;7989;51.198;6.676;2023-11-21T02:41:15;9.90;99.90
15777;DHT22;7989;51.198;6.676;2023-11-21T02:43:42;9.80;99.90
15777;DHT22;7989;51.198;6.676;2023-11-21T02:46:09;9.80;99.90
15777;DHT22;7989;51.198;6.676;2023-11-21T02:48:35;9.60;99.90
15777;DHT22;7989;51.198;6.676;2023-11-21T02:51:03;9.60;99.90
15777;DHT22;7989;51.198;6.676;2023-11-21T02:53:29;9.60;99.90
15777;DHT22;7989;51.198;6.676;2023-11-21T02:55:56;9.80;99.90
15777;DHT22;7989;51.198;6.676;2023-11-21T02:58:24;9.80;99.90
15777;DHT22;7989;51.198;6.676;2023-11-21T03:00:51;9.90;99.90
15777;DHT22;7989;51.198;6.676;2023-11-21T03:03:19;9.80;99.90
15777;DHT22;7989;51.198;6.676;2023-11-21T03:05:46;9.90;99.90
15777;DHT22;7989;51.198;6.676;2023-11-21T03:08:13;9.90;99.90
15777;DHT22;7989;51.198;6.676;2023-11-21T03:10:40;9.90;99.90
15777;DHT22;7989;51.198;6.676;2023-11-21T03:13:06;9.90;99.90
15777;DHT22;7989;51.198;6.676;2023-11-21T03:15:35;9.90;99.90
15777;DHT22;7989;51.198;6.676;2023-11-21T03:18:02;9.80;99.90
15777;DHT22;7989;51.198;6.676;2023-11-21T03:20:30;9.90;99.90
15777;DHT22;7989;51.198;6.676;2023-11-21T03:22:57;9.90;99.90
15777;DHT22;7989;51.198;6.676;2023-11-21T03:25:25;9.90;99.90
15777;DHT22;7989;51.198;6.676;2023-11-21T03:27:52;9.90;99.90
15777;DHT22;7989;51.198;6.676;2023-11-21T03:30:19;9.90;99.90
15777;DHT22;7989;51.198;6.676;2023-11-21T03:32:47;9.90;99.90
15777;DHT22;7989;51.198;6.676;2023-11-21T03:35:14;9.90;99.90
15777;DHT22;7989;51.198;6.676;2023-11-21T03:37:41;9.90;99.90
15777;DHT22;7989;51.198;6.676;2023-11-21T03:40:09;9.90;99.90
15777;DHT22;7989;51.198;6.676;2023-11-21T03:42:38;9.90;99.90
15777;DHT22;7989;51.198;6.676;2023-11-21T03:45:05;9.90;99.90
15777;DHT22;7989;51.198;6.676;2023-11-21T03:47:32;9.90;99.90
15777;DHT22;7989;51.198;6.676;2023-11-21T03:50:01;9.90;99.90
15777;DHT22;7989;51.198;6.676;2023-11-21T03:52:28;9.90;99.90
15777;DHT22;7989;51.198;6.676;2023-11-21T03:54:55;9.90;99.90
15777;DHT22;7989;51.198;6.676;2023-11-21T03:57:22;9.90;99.90
15777;DHT22;7989;51.198;6.676;2023-11-21T03:59:49;9.90;99.90
15777;DHT22;7989;51.198;6.676;2023-11-21T04:02:16;9.90;99.90
15777;DHT22;7989;51.198;6.676;2023-11-21T04:04:42;9.80;99.90
15777;DHT22;7989;51.198;6.676;2023-11-21T04:07:11;9.90;99.90
15777;DHT22;7989;51.198;6.676;2023-11-21T04:09:39;9.90;99.90
15777;DHT22;7989;51.198;6.676;2023-11-21T04:12:07;9.90;99.90
15777;DHT22;7989;51.198;6.676;2023-11-21T04:14:34;9.80;99.90
15777;DHT22;7989;51.198;6.676;2023-11-21T04:17:01;9.80;99.90
15777;DHT22;7989;51.198;6.676;2023-11-21T04:19:29;9.80;99.90
15777;DHT22;7989;51.198;6.676;2023-11-21T04:21:56;9.80;99.90
15777;DHT22;7989;51.198;6.676;2023-11-21T04:24:24;9.90;99.90
15777;DHT22;7989;51.198;6.676;2023-11-21T04:26:51;9.90;99.90
15777;DHT22;7989;51.198;6.676;2023-11-21T04:29:19;9.90;99.90
15777;DHT22;7989;51.198;6.676;2023-11-21T04:31:46;9.80;99.90
15777;DHT22;7989;51.198;6.676;2023-11-21T04:34:14;9.80;99.90
15777;DHT22;7989;51.198;6.676;2023-11-21T04:36:41;9.80;99.90
15777;DHT22;7989;51.198;6.676;2023-11-21T04:39:08;9.80;99.90
15777;DHT22;7989;51.198;6.676;2023-11-21T04:41:36;9.70;99.90
15777;DHT22;7989;51.198;6.676;2023-11-21T04:44:05;9.80;99.90
15777;DHT22;7989;51.198;6.676;2023-11-21T04:46:32;9.80;99.90
15777;DHT22;7989;51.198;6.676;2023-11-21T04:48:59;9.70;99.90
15777;DHT22;7989;51.198;6.676;2023-11-21T04:51:26;9.70;99.90
15777;DHT22;7989;51.198;6.676;2023-11-21T04:53:52;9.70;99.90
15777;DHT22;7989;51.198;6.676;2023-11-21T04:56:19;9.60;99.90
15777;DHT22;7989;51.198;6.676;2023-11-21T04:58:47;9.70;99.90
15777;DHT22;7989;51.198;6.676;2023-11-21T05:01:14;9.60;99.90
15777;DHT22;7989;51.198;6.676;2023-11-21T05:03:41;9.60;99.90
15777;DHT22;7989;51.198;6.676;2023-11-21T05:06:09;9.60;99.90
15777;DHT22;7989;51.198;6.676;2023-11-21T05:08:36;9.70;99.90
15777;DHT22;7989;51.198;6.676;2023-11-21T05:11:03;9.60;99.90
15777;DHT22;7989;51.198;6.676;2023-11-21T05:13:32;9.60;99.90
15777;DHT22;7989;51.198;6.676;2023-11-21T05:16:01;9.60;99.90
15777;DHT22;7989;51.198;6.676;2023-11-21T05:18:31;9.60;99.90
15777;DHT22;7989;51.198;6.676;2023-11-21T05:20:57;9.50;99.90
15777;DHT22;7989;51.198;6.676;2023-11-21T05:23:24;9.60;99.90
15777;DHT22;7989;51.198;6.676;2023-11-21T05:25:51;9.60;99.90
15777;DHT22;7989;51.198;6.676;2023-11-21T05:28:18;9.70;99.90
15777;DHT22;7989;51.198;6.676;2023-11-21T05:30:45;9.60;99.90
15777;DHT22;7989;51.198;6.676;2023-11-21T05:33:13;9.60;99.90
15777;DHT22;7989;51.198;6.676;2023-11-21T05:35:40;9.60;99.90
15777;DHT22;7989;51.198;6.676;2023-11-21T05:38:07;9.60;99.90
15777;DHT22;7989;51.198;6.676;2023-11-21T05:40:33;9.60;99.90
15777;DHT22;7989;51.198;6.676;2023-11-21T05:43:00;9.60;99.90
15777;DHT22;7989;51.198;6.676;2023-11-21T05:45:27;9.60;99.90
15777;DHT22;7989;51.198;6.676;2023-11-21T05:47:55;9.50;99.90
15777;DHT22;7989;51.198;6.676;2023-11-21T05:50:23;9.50;99.90
15777;DHT22;7989;51.198;6.676;2023-11-21T05:52:50;9.50;99.90
15777;DHT22;7989;51.198;6.676;2023-11-21T05:55:17;9.50;99.90
15777;DHT22;7989;51.198;6.676;2023-11-21T05:57:46;9.50;99.90
15777;DHT22;7989;51.198;6.676;2023-11-21T06:00:14;9.60;99.90
15777;DHT22;7989;51.198;6.676;2023-11-21T06:02:45;9.60;99.90
15777;DHT22;7989;51.198;6.676;2023-11-21T06:05:12;9.60;99.90
15777;DHT22;7989;51.198;6.676;2023-11-21T06:07:40;9.60;99.90
15777;DHT22;7989;51.198;6.676;2023-11-21T06:10:08;9.60;99.90
15777;DHT22;7989;51.198;6.676;2023-11-21T06:12:36;9.60;99.90
15777;DHT22;7989;51.198;6.676;2023-11-21T06:15:04;9.60;99.90
15777;DHT22;7989;51.198;6.676;2023-11-21T06:17:33;9.60;99.90
15777;DHT22;7989;51.198;6.676;2023-11-21T06:20:01;9.70;99.90
15777;DHT22;7989;51.198;6.676;2023-11-21T06:22:29;9.60;99.90
15777;DHT22;7989;51.198;6.676;2023-11-21T06:24:58;9.60;99.90
15777;DHT22;7989;51.198;6.676;2023-11-21T06:27:25;9.60;99.90
15777;DHT22;7989;51.198;6.676;2023-11-21T06:29:51;9.50;99.90
15777;DHT22;7989;51.198;6.676;2023-11-21T06:32:18;9.40;99.90
15777;DHT22;7989;51.198;6.676;2023-11-21T06:34:46;9.30;99.90
15777;DHT22;7989;51.198;6.676;2023-11-21T06:37:12;9.40;99.90
15777;DHT22;7989;51.198;6.676;2023-11-21T06:39:39;9.50;99.90
15777;DHT22;7989;51.198;6.676;2023-11-21T06:42:08;9.50;99.90
15777;DHT22;7989;51.198;6.676;2023-11-21T06:44:35;9.40;99.90
15777;DHT22;7989;51.198;6.676;2023-11-21T06:47:03;9.40;99.90
15777;DHT22;7989;51.198;6.676;2023-11-21T06:49:30;9.50;99.90
15777;DHT22;7989;51.198;6.676;2023-11-21T06:51:57;9.50;99.90
15777;DHT22;7989;51.198;6.676;2023-11-21T06:54:24;9.50;99.90
15777;DHT22;7989;51.198;6.676;2023-11-21T06:56:50;9.50;99.90
15777;DHT22;7989;51.198;6.676;2023-11-21T06:59:20;9.60;99.90
15777;DHT22;7989;51.198;6.676;2023-11-21T07:01:47;9.50;99.90
15777;DHT22;7989;51.198;6.676;2023-11-21T07:04:14;9.60;99.90
15777;DHT22;7989;51.198;6.676;2023-11-21T07:06:41;9.50;99.90
15777;DHT22;7989;51.198;6.676;2023-11-21T07:09:08;9.60;99.90
15777;DHT22;7989;51.198;6.676;2023-11-21T07:11:37;9.60;99.90
15777;DHT22;7989;51.198;6.676;2023-11-21T07:14:04;9.60;99.90
15777;DHT22;7989;51.198;6.676;2023-11-21T07:16:34;9.50;99.90
15777;DHT22;7989;51.198;6.676;2023-11-21T07:19:03;9.60;99.90
15777;DHT22;7989;51.198;6.676;2023-11-21T07:21:31;9.60;99.90
15777;DHT22;7989;51.198;6.676;2023-11-21T07:23:58;9.50;99.90
15777;DHT22;7989;51.198;6.676;2023-11-21T07:26:25;9.50;99.90
15777;DHT22;7989;51.198;6.676;2023-11-21T07:28:52;9.70;99.90
15777;DHT22;7989;51.198;6.676;2023-11-21T07:31:19;9.70;99.90
15777;DHT22;7989;51.198;6.676;2023-11-21T07:33:47;9.70;99.90
15777;DHT22;7989;51.198;6.676;2023-11-21T07:36:15;9.70;99.90
15777;DHT22;7989;51.198;6.676;2023-11-21T07:38:44;9.60;99.90
15777;DHT22;7989;51.198;6.676;2023-11-21T07:41:11;9.70;99.90
15777;DHT22;7989;51.198;6.676;2023-11-21T07:43:41;9.70;99.90
15777;DHT22;7989;51.198;6.676;2023-11-21T07:46:08;9.80;99.90
15777;DHT22;7989;51.198;6.676;2023-11-21T07:48:35;9.90;99.90
15777;DHT22;7989;51.198;6.676;2023-11-21T07:51:03;9.90;99.90
15777;DHT22;7989;51.198;6.676;2023-11-21T07:53:30;9.60;99.90
15777;DHT22;7989;51.198;6.676;2023-11-21T07:55:57;9.60;99.90
15777;DHT22;7989;51.198;6.676;2023-11-21T07:58:24;9.60;99.90
15777;DHT22;7989;51.198;6.676;2023-11-21T08:00:51;9.60;99.90
15777;DHT22;7989;51.198;6.676;2023-11-21T08:03:18;9.60;99.90
15777;DHT22;7989;51.198;6.676;2023-11-21T08:05:45;9.50;99.90
15777;DHT22;7989;51.198;6.676;2023-11-21T08:08:13;9.50;99.90
15777;DHT22;7989;51.198;6.676;2023-11-21T08:10:40;9.60;99.90
15777;DHT22;7989;51.198;6.676;2023-11-21T08:13:07;9.50;99.90
15777;DHT22;7989;51.198;6.676;2023-11-21T08:15:40;9.50;99.90
15777;DHT22;7989;51.198;6.676;2023-11-21T08:18:10;9.60;99.90
15777;DHT22;7989;51.198;6.676;2023-11-21T08:20:38;9.70;99.90
15777;DHT22;7989;51.198;6.676;2023-11-21T08:23:05;9.70;99.90
15777;DHT22;7989;51.198;6.676;2023-11-21T08:25:34;9.90;99.90
15777;DHT22;7989;51.198;6.676;2023-11-21T08:28:00;9.90;99.90
15777;DHT22;7989;51.198;6.676;2023-11-21T08:30:27;9.60;99.90
15777;DHT22;7989;51.198;6.676;2023-11-21T08:32:55;9.70;99.90
15777;DHT22;7989;51.198;6.676;2023-11-21T08:35:23;9.90;99.90
15777;DHT22;7989;51.198;6.676;2023-11-21T08:37:51;10.00;99.90
15777;DHT22;7989;51.198;6.676;2023-11-21T08:40:19;10.10;99.90
15777;DHT22;7989;51.198;6.676;2023-11-21T08:42:48;10.20;99.90
15777;DHT22;7989;51.198;6.676;2023-11-21T08:45:17;10.00;99.90
15777;DHT22;7989;51.198;6.676;2023-11-21T08:47:44;9.90;99.90
15777;DHT22;7989;51.198;6.676;2023-11-21T08:50:11;9.80;99.90
15777;DHT22;7989;51.198;6.676;2023-11-21T08:52:38;9.90;99.90
15777;DHT22;7989;51.198;6.676;2023-11-21T08:55:06;10.00;99.90
15777;DHT22;7989;51.198;6.676;2023-11-21T08:57:34;10.00;99.90
15777;DHT22;7989;51.198;6.676;2023-11-21T09:00:04;9.90;99.90
15777;DHT22;7989;51.198;6.676;2023-11-21T09:02:33;9.80;99.90
15777;DHT22;7989;51.198;6.676;2023-11-21T09:05:00;10.00;99.90
15777;DHT22;7989;51.198;6.676;2023-11-21T09:07:28;9.80;99.90
15777;DHT22;7989;51.198;6.676;2023-11-21T09:09:55;9.90;99.90
15777;DHT22;7989;51.198;6.676;2023-11-21T09:12:22;9.80;99.90
15777;DHT22;7989;51.198;6.676;2023-11-21T09:14:50;9.80;99.90
15777;DHT22;7989;51.198;6.676;2023-11-21T09:17:18;10.00;99.90
15777;DHT22;7989;51.198;6.676;2023-11-21T09:19:45;9.90;99.90
15777;DHT22;7989;51.198;6.676;2023-11-21T09:22:15;10.00;99.90
15777;DHT22;7989;51.198;6.676;2023-11-21T09:24:42;10.20;99.90
15777;DHT22;7989;51.198;6.676;2023-11-21T09:27:09;10.00;99.90
15777;DHT22;7989;51.198;6.676;2023-11-21T09:29:36;10.10;99.90
15777;DHT22;7989;51.198;6.676;2023-11-21T09:32:04;10.10;99.90
15777;DHT22;7989;51.198;6.676;2023-11-21T09:34:33;10.20;99.90
15777;DHT22;7989;51.198;6.676;2023-11-21T09:37:01;10.10;99.90
15777;DHT22;7989;51.198;6.676;2023-11-21T09:39:31;10.20;99.90
15777;DHT22;7989;51.198;6.676;2023-11-21T09:42:04;10.20;99.90
15777;DHT22;7989;51.198;6.676;2023-11-21T09:44:36;10.30;99.90
15777;DHT22;7989;51.198;6.676;2023-11-21T09:47:09;10.30;99.90
15777;DHT22;7989;51.198;6.676;2023-11-21T09:49:38;10.40;99.90
15777;DHT22;7989;51.198;6.676;2023-11-21T09:52:08;10.30;99.90
15777;DHT22;7989;51.198;6.676;2023-11-21T09:54:36;10.30;99.90
15777;DHT22;7989;51.198;6.676;2023-11-21T09:57:04;10.20;99.90
15777;DHT22;7989;51.198;6.676;2023-11-21T09:59:31;10.20;99.90
15777;DHT22;7989;51.198;6.676;2023-11-21T10:01:58;10.10;99.90
15777;DHT22;7989;51.198;6.676;2023-11-21T10:04:25;10.30;99.90
15777;DHT22;7989;51.198;6.676;2023-11-21T10:06:54;10.50;99.90
15777;DHT22;7989;51.198;6.676;2023-11-21T10:09:23;10.50;99.90
15777;DHT22;7989;51.198;6.676;2023-11-21T10:11:52;10.60;99.90
15777;DHT22;7989;51.198;6.676;2023-11-21T10:14:24;10.70;99.90
15777;DHT22;7989;51.198;6.676;2023-11-21T10:16:55;10.80;99.90
15777;DHT22;7989;51.198;6.676;2023-11-21T10:19:23;10.90;99.90
15777;DHT22;7989;51.198;6.676;2023-11-21T10:21:51;11.00;99.90
15777;DHT22;7989;51.198;6.676;2023-11-21T10:24:19;11.00;99.90
15777;DHT22;7989;51.198;6.676;2023-11-21T10:26:46;11.00;99.90
15777;DHT22;7989;51.198;6.676;2023-11-21T10:29:14;10.90;99.90
15777;DHT22;7989;51.198;6.676;2023-11-21T10:31:42;10.90;99.90
15777;DHT22;7989;51.198;6.676;2023-11-21T10:34:14;10.90;99.90
15777;DHT22;7989;51.198;6.676;2023-11-21T10:36:41;10.80;99.90
15777;DHT22;7989;51.198;6.676;2023-11-21T10:39:08;10.80;99.90
15777;DHT22;7989;51.198;6.676;2023-11-21T10:41:37;10.80;99.90
15777;DHT22;7989;51.198;6.676;2023-11-21T10:44:05;10.80;99.90
15777;DHT22;7989;51.198;6.676;2023-11-21T10:46:34;10.80;99.90
15777;DHT22;7989;51.198;6.676;2023-11-21T10:49:02;10.80;99.90
15777;DHT22;7989;51.198;6.676;2023-11-21T10:51:28;10.70;99.90
15777;DHT22;7989;51.198;6.676;2023-11-21T10:53:56;10.80;99.90
15777;DHT22;7989;51.198;6.676;2023-11-21T10:56:23;10.80;99.90
15777;DHT22;7989;51.198;6.676;2023-11-21T10:58:53;10.70;99.90
15777;DHT22;7989;51.198;6.676;2023-11-21T11:01:20;10.90;99.90
15777;DHT22;7989;51.198;6.676;2023-11-21T11:03:49;10.70;99.90
15777;DHT22;7989;51.198;6.676;2023-11-21T11:06:20;10.80;99.90
15777;DHT22;7989;51.198;6.676;2023-11-21T11:08:48;10.80;99.90
15777;DHT22;7989;51.198;6.676;2023-11-21T11:11:14;10.80;99.90
15777;DHT22;7989;51.198;6.676;2023-11-21T11:13:43;10.80;99.90
15777;DHT22;7989;51.198;6.676;2023-11-21T11:16:13;10.70;99.90
15777;DHT22;7989;51.198;6.676;2023-11-21T11:18:43;10.80;99.90
15777;DHT22;7989;51.198;6.676;2023-11-21T11:21:21;10.60;99.90
15777;DHT22;7989;51.198;6.676;2023-11-21T11:24:01;10.50;99.90
15777;DHT22;7989;51.198;6.676;2023-11-21T11:26:39;10.40;99.90
15777;DHT22;7989;51.198;6.676;2023-11-21T11:29:17;10.40;99.90
15777;DHT22;7989;51.198;6.676;2023-11-21T11:31:55;10.30;99.90
15777;DHT22;7989;51.198;6.676;2023-11-21T11:34:32;10.40;99.90
15777;DHT22;7989;51.198;6.676;2023-11-21T11:37:01;10.20;99.90
15777;DHT22;7989;51.198;6.676;2023-11-21T11:39:30;10.30;99.90
15777;DHT22;7989;51.198;6.676;2023-11-21T11:41:58;10.30;99.90
15777;DHT22;7989;51.198;6.676;2023-11-21T11:44:48;10.30;99.90
15777;DHT22;7989;51.198;6.676;2023-11-21T11:47:20;10.50;99.90
15777;DHT22;7989;51.198;6.676;2023-11-21T11:50:02;10.50;99.90
15777;DHT22;7989;51.198;6.676;2023-11-21T11:52:37;10.40;99.90
15777;DHT22;7989;51.198;6.676;2023-11-21T11:55:05;10.40;99.90
15777;DHT22;7989;51.198;6.676;2023-11-21T11:57:34;10.20;99.90
15777;DHT22;7989;51.198;6.676;2023-11-21T12:00:11;10.30;99.90
15777;DHT22;7989;51.198;6.676;2023-11-21T12:02:44;10.40;99.90
15777;DHT22;7989;51.198;6.676;2023-11-21T12:05:14;10.60;99.90
15777;DHT22;7989;51.198;6.676;2023-11-21T12:07:47;10.90;99.90
15777;DHT22;7989;51.198;6.676;2023-11-21T12:10:16;11.00;99.90
15777;DHT22;7989;51.198;6.676;2023-11-21T12:12:47;11.20;99.90
15777;DHT22;7989;51.198;6.676;2023-11-21T12:15:15;11.10;99.90
15777;DHT22;7989;51.198;6.676;2023-11-21T12:17:44;11.00;99.90
15777;DHT22;7989;51.198;6.676;2023-11-21T12:20:12;11.10;99.90
15777;DHT22;7989;51.198;6.676;2023-11-21T12:22:44;11.20;99.90
15777;DHT22;7989;51.198;6.676;2023-11-21T12:25:13;11.30;99.90
15777;DHT22;7989;51.198;6.676;2023-11-21T12:27:42;11.30;99.90
15777;DHT22;7989;51.198;6.676;2023-11-21T12:30:11;11.40;99.90
15777;DHT22;7989;51.198;6.676;2023-11-21T12:32:42;11.50;99.90
15777;DHT22;7989;51.198;6.676;2023-11-21T12:35:10;11.40;99.90
15777;DHT22;7989;51.198;6.676;2023-11-21T12:37:37;11.50;99.90
15777;DHT22;7989;51.198;6.676;2023-11-21T12:40:06;11.50;99.90
15777;DHT22;7989;51.198;6.676;2023-11-21T12:42:33;11.60;99.90
15777;DHT22;7989;51.198;6.676;2023-11-21T12:45:18;11.60;99.90
15777;DHT22;7989;51.198;6.676;2023-11-21T12:47:47;11.70;99.90
15777;DHT22;7989;51.198;6.676;2023-11-21T12:50:15;11.70;99.90
15777;DHT22;7989;51.198;6.676;2023-11-21T12:52:42;11.80;99.90
15777;DHT22;7989;51.198;6.676;2023-11-21T12:55:15;11.70;99.90
15777;DHT22;7989;51.198;6.676;2023-11-21T12:57:43;11.50;99.90
15777;DHT22;7989;51.198;6.676;2023-11-21T13:00:12;11.50;99.90
15777;DHT22;7989;51.198;6.676;2023-11-21T13:02:56;11.60;99.90
15777;DHT22;7989;51.198;6.676;2023-11-21T13:05:27;11.70;99.90
15777;DHT22;7989;51.198;6.676;2023-11-21T13:07:55;11.60;99.90
15777;DHT22;7989;51.198;6.676;2023-11-21T13:10:24;11.60;99.90
15777;DHT22;7989;51.198;6.676;2023-11-21T13:12:55;11.60;99.90
15777;DHT22;7989;51.198;6.676;2023-11-21T13:15:23;11.70;99.90
15777;DHT22;7989;51.198;6.676;2023-11-21T13:17:51;11.70;99.90
15777;DHT22;7989;51.198;6.676;2023-11-21T13:20:19;11.60;99.90
15777;DHT22;7989;51.198;6.676;2023-11-21T13:22:48;11.60;99.90
15777;DHT22;7989;51.198;6.676;2023-11-21T13:25:15;11.70;99.90
15777;DHT22;7989;51.198;6.676;2023-11-21T13:27:45;11.60;99.90
15777;DHT22;7989;51.198;6.676;2023-11-21T13:30:13;11.60;99.90
15777;DHT22;7989;51.198;6.676;2023-11-21T13:32:43;11.50;99.90
15777;DHT22;7989;51.198;6.676;2023-11-21T13:35:12;11.40;99.90
15777;DHT22;7989;51.198;6.676;2023-11-21T13:37:50;11.50;99.90
15777;DHT22;7989;51.198;6.676;2023-11-21T13:40:21;11.50;99.90
15777;DHT22;7989;51.198;6.676;2023-11-21T13:42:51;11.40;99.90
15777;DHT22;7989;51.198;6.676;2023-11-21T13:45:21;11.40;99.90
15777;DHT22;7989;51.198;6.676;2023-11-21T13:47:49;11.50;99.90
15777;DHT22;7989;51.198;6.676;2023-11-21T13:50:19;11.50;99.90
15777;DHT22;7989;51.198;6.676;2023-11-21T13:52:50;11.50;99.90
15777;DHT22;7989;51.198;6.676;2023-11-21T13:55:18;11.50;99.90
15777;DHT22;7989;51.198;6.676;2023-11-21T13:57:47;11.40;99.90
15777;DHT22;7989;51.198;6.676;2023-11-21T14:00:17;11.40;99.90
15777;DHT22;7989;51.198;6.676;2023-11-21T14:03:01;11.40;99.90
15777;DHT22;7989;51.198;6.676;2023-11-21T14:05:35;11.30;99.90
15777;DHT22;7989;51.198;6.676;2023-11-21T14:08:02;11.30;99.90
15777;DHT22;7989;51.198;6.676;2023-11-21T14:10:30;11.30;99.90
15777;DHT22;7989;51.198;6.676;2023-11-21T14:13:06;11.10;99.90
15777;DHT22;7989;51.198;6.676;2023-11-21T14:15:32;11.10;99.90
15777;DHT22;7989;51.198;6.676;2023-11-21T14:18:03;11.20;99.90
15777;DHT22;7989;51.198;6.676;2023-11-21T14:20:35;11.20;99.90
15777;DHT22;7989;51.198;6.676;2023-11-21T14:23:02;11.20;99.90
15777;DHT22;7989;51.198;6.676;2023-11-21T14:25:33;11.20;99.90
15777;DHT22;7989;51.198;6.676;2023-11-21T14:28:02;11.00;99.90
15777;DHT22;7989;51.198;6.676;2023-11-21T14:30:30;10.90;99.90
15777;DHT22;7989;51.198;6.676;2023-11-21T14:33:00;10.70;99.90
15777;DHT22;7989;51.198;6.676;2023-11-21T14:35:27;10.60;99.90
15777;DHT22;7989;51.198;6.676;2023-11-21T14:37:57;10.50;99.90
15777;DHT22;7989;51.198;6.676;2023-11-21T14:40:24;10.50;99.90
15777;DHT22;7989;51.198;6.676;2023-11-21T14:42:52;10.50;99.90
15777;DHT22;7989;51.198;6.676;2023-11-21T14:45:22;10.60;99.90
15777;DHT22;7989;51.198;6.676;2023-11-21T14:47:51;10.60;99.90
15777;DHT22;7989;51.198;6.676;2023-11-21T14:50:26;10.50;99.90
15777;DHT22;7989;51.198;6.676;2023-11-21T14:53:11;10.50;99.90
15777;DHT22;7989;51.198;6.676;2023-11-21T14:55:38;10.50;99.90
15777;DHT22;7989;51.198;6.676;2023-11-21T14:58:18;10.40;99.90
15777;DHT22;7989;51.198;6.676;2023-11-21T15:00:53;10.30;99.90
15777;DHT22;7989;51.198;6.676;2023-11-21T15:03:23;10.30;99.90
15777;DHT22;7989;51.198;6.676;2023-11-21T15:06:05;10.30;99.90
15777;DHT22;7989;51.198;6.676;2023-11-21T15:08:49;10.30;99.90
15777;DHT22;7989;51.198;6.676;2023-11-21T15:11:21;10.30;99.90
15777;DHT22;7989;51.198;6.676;2023-11-21T15:13:55;10.30;99.90
15777;DHT22;7989;51.198;6.676;2023-11-21T15:16:22;10.30;99.90
15777;DHT22;7989;51.198;6.676;2023-11-21T15:18:47;10.30;99.90
15777;DHT22;7989;51.198;6.676;2023-11-21T15:21:15;10.30;99.90
15777;DHT22;7989;51.198;6.676;2023-11-21T15:23:41;10.30;99.90
15777;DHT22;7989;51.198;6.676;2023-11-21T15:26:09;10.30;99.90
15777;DHT22;7989;51.198;6.676;2023-11-21T15:28:36;10.30;99.90
15777;DHT22;7989;51.198;6.676;2023-11-21T15:31:03;10.30;99.90
15777;DHT22;7989;51.198;6.676;2023-11-21T15:33:30;10.30;99.90
15777;DHT22;7989;51.198;6.676;2023-11-21T15:35:57;10.30;99.90
15777;DHT22;7989;51.198;6.676;2023-11-21T15:38:24;10.20;99.90
15777;DHT22;7989;51.198;6.676;2023-11-21T15:40:51;10.20;99.90
15777;DHT22;7989;51.198;6.676;2023-11-21T15:43:19;10.20;99.90
15777;DHT22;7989;51.198;6.676;2023-11-21T15:45:46;10.20;99.90
15777;DHT22;7989;51.198;6.676;2023-11-21T15:48:13;10.20;99.90
15777;DHT22;7989;51.198;6.676;2023-11-21T15:50:42;10.20;99.90
15777;DHT22;7989;51.198;6.676;2023-11-21T15:53:09;10.20;99.90
15777;DHT22;7989;51.198;6.676;2023-11-21T15:55:36;10.20;99.90
15777;DHT22;7989;51.198;6.676;2023-11-21T15:58:07;10.20;99.90
15777;DHT22;7989;51.198;6.676;2023-11-21T16:00:36;10.20;99.90
15777;DHT22;7989;51.198;6.676;2023-11-21T16:03:02;10.20;99.90